Clifton, New Jersey
Current Conditions -  °F | °C
As of 2:13 AM on Wednesday 22 Oct 2014 (Local Time) from KTEB Reporting Station
Overcast Overcast  
Wind Chill: 55°   Ceiling: 1300
Heat Index: 55°   Visibility: 10mi
Dew Point: 52°   Wind: 7mph
Humidity: 88%   Direction: 10°N
Pressure: 29.89"   Gusts: NA
Location:  40.87°N, 74.16°W
Report Text: KTEB 220613Z 01006KT 10SM OVC013 13/11 A2989 RMK AO2
Loading
Personal Weather Stations






























Interactive Weather Map
Tropical Storm Tracking
New forecast layout! Learn more

10-Day Weather Forecast

Advertisements
Track Severe Weather on mobile